Tasman Crusader — A8NQ7 — position and weather

sailwx.info

Track history (hours):
 
Tides and Currents Weather Stations Pressure Air Temp Water Temp Dewpoint Dewpoint Depression Visibility Wind Speed Wind Dir Waves Ship Positions

Tasman Crusader

Last reported at 2014-Jul-31 12:14 UTC. Time now 2014-Aug-23 19:50 UTC.
Position N 27°15' W 115°13'.
Warning: this ship's position is 23 days out of date.

Length 186 m; draft 8.8 m.

Type: Cargo ship. MMSI: 636091434.

Date/timePositionNaut miles runAvg speedWind from/ knotsBaromVisibWave heightAir tempDewpointWater temp
2014-Jul-31 12:14N 27°15' W 115°13'1216.8
2014-Jul-31 11:32N 27°24' W 115°21'3316.3
2014-Jul-31 09:30N 27°51' W 115°43'1616.7
2014-Jul-31 08:33N 28°03' W 115°54'1717.3
2014-Jul-31 07:34N 28°17' W 116°05'1716.7
2014-Jul-31 06:31N 28°31' W 116°17'1516.1
2014-Jul-31 05:33N 28°43' W 116°28'1615.8
2014-Jul-31 04:33N 28°56' W 116°39'1616.2
2014-Jul-31 03:32N 29°09' W 116°51'1616.3
2014-Jul-31 02:33N 29°22' W 117°02'1616.3
2014-Jul-31 01:33N 29°35' W 117°13'1616.4
2014-Jul-31 00:34N 29°48' W 117°24'1616.4
2014-Jul-30 23:34N 30°01' W 117°36'1716.6
2014-Jul-30 22:34N 30°14' W 117°48'1716.7
2014-Jul-30 21:34N 30°27' W 117°60'1716.6
2014-Jul-30 20:34N 30°40' W 118°12'1716.8
2014-Jul-30 19:34N 30°53' W 118°24'1616.3
2014-Jul-30 18:34N 31°06' W 118°35'1616.0
2014-Jul-30 17:34N 31°19' W 118°46'1615.9
2014-Jul-30 16:34N 31°32' W 118°58'1616.2
2014-Jul-30 15:34N 31°44' W 119°09'1717.0
2014-Jul-30 14:34N 31°58' W 119°22'1615.8
2014-Jul-30 13:34N 32°10' W 119°33'1616.1
2014-Jul-30 12:34N 32°23' W 119°45'1616.1
2014-Jul-30 11:34N 32°36' W 119°56'1615.5
2014-Jul-30 10:34N 32°48' W 120°08'1615.8
2014-Jul-30 09:34N 33°01' W 120°19'1615.7
2014-Jul-30 08:34N 33°13' W 120°31'1615.5
2014-Jul-30 07:33N 33°26' W 120°42'1615.7
2014-Jul-30 06:34N 33°38' W 120°53'1615.8
2014-Jul-30 05:33N 33°51' W 121°04'1616.2
2014-Jul-30 04:33N 34°06' W 121°12'1616.2
2014-Jul-30 03:33N 34°21' W 121°20'1616.4
2014-Jul-30 02:33N 34°35' W 121°29'1615.7
2014-Jul-30 01:33N 34°49' W 121°37'1616.0
2014-Jul-30 00:33N 35°04' W 121°45'1616.2
2014-Jul-29 23:33N 35°19' W 121°54'1616.3
2014-Jul-29 22:33N 35°33' W 122°03'1615.8
2014-Jul-29 21:33N 35°48' W 122°11'1515.2
2014-Jul-29 20:33N 36°01' W 122°19'1615.8
2014-Jul-29 19:33N 36°16' W 122°27'1615.7
2014-Jul-29 18:33N 36°30' W 122°36'1615.6
2014-Jul-29 17:33N 36°44' W 122°44'1615.8
2014-Jul-29 16:33N 36°58' W 122°52'1615.7
2014-Jul-29 15:33N 37°12' W 123°01'1312.7
2014-Jul-29 14:33N 37°25' W 123°04'1110.7
2014-Jul-29 13:33N 37°35' W 123°01'1211.8
2014-Jul-29 12:33N 37°42' W 122°49'1211.7
2014-Jul-29 11:34N 37°47' W 122°35'1211.8
2014-Jul-29 10:33N 37°48' W 122°21'1 1.4
2014-Jul-29 09:33N 37°49' W 122°19'0 0.0
2014-Jul-29 08:33N 37°49' W 122°19'0 0.0
2014-Jul-29 07:33N 37°49' W 122°19'0 0.0
2014-Jul-29 06:33N 37°49' W 122°19'0 0.0
2014-Jul-29 05:33N 37°49' W 122°19'0 0.0
2014-Jul-29 04:33N 37°49' W 122°19'0 0.0
2014-Jul-29 03:33N 37°49' W 122°19'0 0.0
2014-Jul-29 02:33N 37°49' W 122°19'0 0.0
2014-Jul-29 01:33N 37°49' W 122°19'0 0.0
2014-Jul-29 00:34N 37°49' W 122°19'8 8.1
2014-Jul-28 23:33N 37°49' W 122°29'1313.1
2014-Jul-28 22:33N 37°43' W 122°44'1110.6
2014-Jul-28 21:33N 37°36' W 122°55'9 9.4
2014-Jul-28 20:33N 37°30' W 123°03'1010.2
2014-Jul-28 19:33N 37°20' W 123°04'1110.7
2014-Jul-28 18:33N 37°10' W 122°59'1110.8
2014-Jul-28 17:33N 36°60' W 122°53'1110.7
2014-Jul-28 16:33N 36°50' W 122°48'1010.4
2014-Jul-28 15:33N 36°41' W 122°42'1010.6
2014-Jul-28 14:33N 36°31' W 122°37'1110.7
2014-Jul-28 13:33N 36°22' W 122°31'1110.7
2014-Jul-28 12:33N 36°12' W 122°25'1010.4
2014-Jul-28 11:33N 36°03' W 122°19'1110.4
2014-Jul-28 10:33N 35°53' W 122°14'1110.7
2014-Jul-28 09:33N 35°43' W 122°09'1010.3
2014-Jul-28 08:33N 35°34' W 122°03'1010.1
2014-Jul-28 07:33N 35°25' W 121°57'1010.1
2014-Jul-28 06:33N 35°16' W 121°52'1010.2
2014-Jul-28 05:33N 35°07' W 121°47'1010.4
2014-Jul-28 04:33N 34°57' W 121°42'1010.2
2014-Jul-28 03:33N 34°48' W 121°36'1110.8
2014-Jul-28 02:33N 34°38' W 121°31'1110.5
2014-Jul-28 01:33N 34°28' W 121°27'0 0.4
2014-Jul-28 00:19N 34°29' W 121°26'0 0.5
2014-Jul-27 23:25N 34°29' W 121°27'0 0.4
2014-Jul-27 22:13N 34°30' W 121°27'0 0.3
2014-Jul-27 21:31N 34°30' W 121°27'0 0.4
2014-Jul-27 20:25N 34°30' W 121°27'0 0.3
2014-Jul-27 19:19N 34°30' W 121°26'5 7.2
2014-Jul-27 18:33N 34°26' W 121°23'1110.6
2014-Jul-27 17:33N 34°16' W 121°18'1010.4
2014-Jul-27 16:33N 34°07' W 121°12'1414.5
2014-Jul-27 15:33N 33°54' W 121°05'1010.4
2014-Jul-27 14:33N 33°45' W 120°59'1010.3
2014-Jul-27 13:33N 33°40' W 120°47'1010.3
2014-Jul-27 12:33N 33°36' W 120°36'1010.5
2014-Jul-27 11:33N 33°32' W 120°25'1010.5
2014-Jul-27 10:33N 33°29' W 120°13'1010.3
2014-Jul-27 09:33N 33°28' W 120°00'1110.8
2014-Jul-27 08:33N 33°30' W 119°48'1111.2
2014-Jul-27 07:33N 33°33' W 119°35'1111.1
2014-Jul-27 06:32N 33°37' W 119°22'1111.3
2014-Jul-27 05:33N 33°40' W 119°09'1110.6
2014-Jul-27 04:33N 33°40' W 118°57'1010.3
2014-Jul-27 03:33N 33°40' W 118°44'1010.1
2014-Jul-27 02:33N 33°39' W 118°32'10 9.8
2014-Jul-27 01:33N 33°38' W 118°21'7 6.7
2014-Jul-27 00:33N 33°44' W 118°17'2 1.7
2014-Jul-26 23:31N 33°46' W 118°17'0 0.0
2014-Jul-26 22:34N 33°46' W 118°17'0 0.0
2014-Jul-26 21:34N 33°46' W 118°17'0 0.0
2014-Jul-26 20:34N 33°46' W 118°17'0 0.0
2014-Jul-26 19:31N 33°46' W 118°17'0 0.0
2014-Jul-26 18:31N 33°46' W 118°17'0 0.0
2014-Jul-26 17:31N 33°46' W 118°17'0 0.0
2014-Jul-26 16:31N 33°46' W 118°17'0 0.0
2014-Jul-26 15:34N 33°46' W 118°17'0 0.0
2014-Jul-26 14:34N 33°46' W 118°17'0 0.0
2014-Jul-26 13:31N 33°46' W 118°17'2 1.9
2014-Jul-26 12:33N 33°44' W 118°17'3 3.3
2014-Jul-26 11:32N 33°43' W 118°13'0 0.0
2014-Jul-26 10:32N 33°43' W 118°13'0 0.1
2014-Jul-26 09:32N 33°43' W 118°13'0 0.1
2014-Jul-26 08:29N 33°43' W 118°13'0 0.0
2014-Jul-26 07:32N 33°43' W 118°13'0 0.1
2014-Jul-26 06:32N 33°43' W 118°13'0 0.1
2014-Jul-26 05:32N 33°43' W 118°13'0 0.0
2014-Jul-26 04:32N 33°43' W 118°13'0 0.1
2014-Jul-26 03:32N 33°43' W 118°13'0 0.0
2014-Jul-26 02:32N 33°43' W 118°13'0 0.0
2014-Jul-26 01:32N 33°43' W 118°13'0 0.0
2014-Jul-26 00:32N 33°43' W 118°13'0 0.0
2014-Jul-25 23:32N 33°43' W 118°13'0 0.1
2014-Jul-25 22:32N 33°43' W 118°13'0 0.0
2014-Jul-25 21:32N 33°43' W 118°13'0 0.0
2014-Jul-25 20:32N 33°43' W 118°13'0 0.1
2014-Jul-25 19:32N 33°43' W 118°13'0 0.0
2014-Jul-25 18:29N 33°43' W 118°13'1 0.7
2014-Jul-25 17:33N 33°42' W 118°13'8 8.3
2014-Jul-25 16:33N 33°36' W 118°20'1110.9
2014-Jul-25 15:33N 33°41' W 118°32'1110.6
2014-Jul-25 14:33N 33°46' W 118°43'1010.4
2014-Jul-25 13:33N 33°52' W 118°53'1210.6
2014-Jul-25 12:27N 33°57' W 119°06'1011.0
2014-Jul-25 11:33N 34°03' W 119°15'6 1.3
2014-Jul-25 06:27N 34°09' W 119°12'0 0.0
2014-Jul-25 05:30N 34°09' W 119°12'0 0.0
2014-Jul-25 04:33N 34°09' W 119°12'0 0.0
2014-Jul-25 03:21N 34°09' W 119°12'0 0.0
2014-Jul-25 02:27N 34°09' W 119°12'0 0.0
2014-Jul-25 01:33N 34°09' W 119°12'0 0.0
2014-Jul-25 00:27N 34°09' W 119°12'0 0.0
2014-Jul-24 23:33N 34°09' W 119°12'0 0.0
2014-Jul-24 22:33N 34°09' W 119°12'0 0.0
2014-Jul-24 21:33N 34°09' W 119°12'0 0.0
2014-Jul-24 20:33N 34°09' W 119°12'0 0.0
2014-Jul-24 19:33N 34°09' W 119°12'0 0.0
2014-Jul-24 18:33N 34°09' W 119°12'0 0.0
2014-Jul-24 17:32N 34°09' W 119°12'0 0.0
2014-Jul-24 16:33N 34°09' W 119°12'0 0.0
2014-Jul-24 13:21N 34°09' W 119°12'0 0.0
2014-Jul-24 12:32N 34°09' W 119°12'0 0.0
2014-Jul-24 11:26N 34°09' W 119°12'0 0.0
2014-Jul-24 10:29N 34°09' W 119°12'0 0.0
2014-Jul-24 09:26N 34°09' W 119°12'0 0.0
2014-Jul-24 07:14N 34°09' W 119°12'0 0.0
2014-Jul-24 06:14N 34°09' W 119°12'0 0.0
2014-Jul-24 05:32N 34°09' W 119°12'0 0.0
2014-Jul-24 03:23N 34°09' W 119°12'0 0.0
2014-Jul-24 02:29N 34°09' W 119°12'0 0.0
2014-Jul-24 01:08N 34°09' W 119°12'0 0.0
2014-Jul-24 00:32N 34°09' W 119°12'0 0.0
2014-Jul-23 23:29N 34°09' W 119°12'0 0.0
2014-Jul-23 22:26N 34°09' W 119°12'0 0.0
2014-Jul-23 21:32N 34°09' W 119°12'0 0.0
2014-Jul-23 20:32N 34°09' W 119°12'0 0.0
2014-Jul-23 19:26N 34°09' W 119°12'0 0.0
2014-Jul-23 18:29N 34°09' W 119°12'0 0.0
2014-Jul-23 17:26N 34°09' W 119°12'0 0.0
2014-Jul-23 15:32N 34°09' W 119°12'0 0.0
2014-Jul-23 14:32N 34°09' W 119°12'0 0.0
2014-Jul-23 13:33N 34°09' W 119°12'5 4.8
2014-Jul-23 12:33N 34°04' W 119°14'1110.7
2014-Jul-23 11:33N 33°59' W 119°03'1110.7
2014-Jul-23 10:33N 33°53' W 118°52'1110.5
2014-Jul-23 09:33N 33°48' W 118°41'1111.1
2014-Jul-23 08:33N 33°43' W 118°29'1110.5
2014-Jul-23 07:32N 33°38' W 118°18'10 9.8
2014-Jul-23 06:33N 33°33' W 118°08'1110.8
2014-Jul-23 05:33N 33°22' W 118°04'1110.9
2014-Jul-23 04:33N 33°12' W 117°59'1111.1
2014-Jul-23 03:33N 33°02' W 117°55'1211.5
2014-Jul-23 02:33N 32°51' W 117°50'1111.4
2014-Jul-23 01:33N 32°40' W 117°46'1110.8
2014-Jul-23 00:33N 32°30' W 117°40'1211.8
2014-Jul-22 23:33N 32°19' W 117°37'1313.1
2014-Jul-22 22:33N 32°07' W 117°31'1515.1
2014-Jul-22 21:33N 31°52' W 117°25'1615.1
2014-Jul-22 20:31N 31°38' W 117°19'1515.3
2014-Jul-22 19:33N 31°24' W 117°14'1715.7
2014-Jul-22 18:29N 31°08' W 117°07'10716.6
2014-Jul-22 12:04N 29°27' W 116°26'30416.8
2014-Jul-21 18:00N 25°06' W 113°30'   330 / 151016.010.8 2.022.020.6
Track history (hours):
 
Tides and Currents Weather Stations Pressure Air Temp Water Temp Dewpoint Dewpoint Depression Visibility Wind Speed Wind Dir Waves Ship Positions

Tasman Crusader

Last reported at 2014-Jul-31 12:14 UTC. Time now 2014-Aug-23 19:50 UTC.
Position N 27°15' W 115°13'.
Warning: this ship's position is 23 days out of date.

Length 186 m; draft 8.8 m.

Type: Cargo ship. MMSI: 636091434.

Date/timePositionNaut miles runAvg speedWind from/ knotsBaromVisibWave heightAir tempDewpointWater temp
2014-Jul-31 12:14N 27°15' W 115°13'1216.8
2014-Jul-31 11:32N 27°24' W 115°21'3316.3
2014-Jul-31 09:30N 27°51' W 115°43'1616.7
2014-Jul-31 08:33N 28°03' W 115°54'1717.3
2014-Jul-31 07:34N 28°17' W 116°05'1716.7
2014-Jul-31 06:31N 28°31' W 116°17'1516.1
2014-Jul-31 05:33N 28°43' W 116°28'1615.8
2014-Jul-31 04:33N 28°56' W 116°39'1616.2
2014-Jul-31 03:32N 29°09' W 116°51'1616.3
2014-Jul-31 02:33N 29°22' W 117°02'1616.3
2014-Jul-31 01:33N 29°35' W 117°13'1616.4
2014-Jul-31 00:34N 29°48' W 117°24'1616.4
2014-Jul-30 23:34N 30°01' W 117°36'1716.6
2014-Jul-30 22:34N 30°14' W 117°48'1716.7
2014-Jul-30 21:34N 30°27' W 117°60'1716.6
2014-Jul-30 20:34N 30°40' W 118°12'1716.8
2014-Jul-30 19:34N 30°53' W 118°24'1616.3
2014-Jul-30 18:34N 31°06' W 118°35'1616.0
2014-Jul-30 17:34N 31°19' W 118°46'1615.9
2014-Jul-30 16:34N 31°32' W 118°58'1616.2
2014-Jul-30 15:34N 31°44' W 119°09'1717.0
2014-Jul-30 14:34N 31°58' W 119°22'1615.8
2014-Jul-30 13:34N 32°10' W 119°33'1616.1
2014-Jul-30 12:34N 32°23' W 119°45'1616.1
2014-Jul-30 11:34N 32°36' W 119°56'1615.5
2014-Jul-30 10:34N 32°48' W 120°08'1615.8
2014-Jul-30 09:34N 33°01' W 120°19'1615.7
2014-Jul-30 08:34N 33°13' W 120°31'1615.5
2014-Jul-30 07:33N 33°26' W 120°42'1615.7
2014-Jul-30 06:34N 33°38' W 120°53'1615.8
2014-Jul-30 05:33N 33°51' W 121°04'1616.2
2014-Jul-30 04:33N 34°06' W 121°12'1616.2
2014-Jul-30 03:33N 34°21' W 121°20'1616.4
2014-Jul-30 02:33N 34°35' W 121°29'1615.7
2014-Jul-30 01:33N 34°49' W 121°37'1616.0
2014-Jul-30 00:33N 35°04' W 121°45'1616.2
2014-Jul-29 23:33N 35°19' W 121°54'1616.3
2014-Jul-29 22:33N 35°33' W 122°03'1615.8
2014-Jul-29 21:33N 35°48' W 122°11'1515.2
2014-Jul-29 20:33N 36°01' W 122°19'1615.8
2014-Jul-29 19:33N 36°16' W 122°27'1615.7
2014-Jul-29 18:33N 36°30' W 122°36'1615.6
2014-Jul-29 17:33N 36°44' W 122°44'1615.8
2014-Jul-29 16:33N 36°58' W 122°52'1615.7
2014-Jul-29 15:33N 37°12' W 123°01'1312.7
2014-Jul-29 14:33N 37°25' W 123°04'1110.7
2014-Jul-29 13:33N 37°35' W 123°01'1211.8
2014-Jul-29 12:33N 37°42' W 122°49'1211.7
2014-Jul-29 11:34N 37°47' W 122°35'1211.8
2014-Jul-29 10:33N 37°48' W 122°21'1 1.4
2014-Jul-29 09:33N 37°49' W 122°19'0 0.0
2014-Jul-29 08:33N 37°49' W 122°19'0 0.0
2014-Jul-29 07:33N 37°49' W 122°19'0 0.0
2014-Jul-29 06:33N 37°49' W 122°19'0 0.0
2014-Jul-29 05:33N 37°49' W 122°19'0 0.0
2014-Jul-29 04:33N 37°49' W 122°19'0 0.0
2014-Jul-29 03:33N 37°49' W 122°19'0 0.0
2014-Jul-29 02:33N 37°49' W 122°19'0 0.0
2014-Jul-29 01:33N 37°49' W 122°19'0 0.0
2014-Jul-29 00:34N 37°49' W 122°19'8 8.1
2014-Jul-28 23:33N 37°49' W 122°29'1313.1
2014-Jul-28 22:33N 37°43' W 122°44'1110.6
2014-Jul-28 21:33N 37°36' W 122°55'9 9.4
2014-Jul-28 20:33N 37°30' W 123°03'1010.2
2014-Jul-28 19:33N 37°20' W 123°04'1110.7
2014-Jul-28 18:33N 37°10' W 122°59'1110.8
2014-Jul-28 17:33N 36°60' W 122°53'1110.7
2014-Jul-28 16:33N 36°50' W 122°48'1010.4
2014-Jul-28 15:33N 36°41' W 122°42'1010.6
2014-Jul-28 14:33N 36°31' W 122°37'1110.7
2014-Jul-28 13:33N 36°22' W 122°31'1110.7
2014-Jul-28 12:33N 36°12' W 122°25'1010.4
2014-Jul-28 11:33N 36°03' W 122°19'1110.4
2014-Jul-28 10:33N 35°53' W 122°14'1110.7
2014-Jul-28 09:33N 35°43' W 122°09'1010.3
2014-Jul-28 08:33N 35°34' W 122°03'1010.1
2014-Jul-28 07:33N 35°25' W 121°57'1010.1
2014-Jul-28 06:33N 35°16' W 121°52'1010.2
2014-Jul-28 05:33N 35°07' W 121°47'1010.4
2014-Jul-28 04:33N 34°57' W 121°42'1010.2
2014-Jul-28 03:33N 34°48' W 121°36'1110.8
2014-Jul-28 02:33N 34°38' W 121°31'1110.5
2014-Jul-28 01:33N 34°28' W 121°27'0 0.4
2014-Jul-28 00:19N 34°29' W 121°26'0 0.5
2014-Jul-27 23:25N 34°29' W 121°27'0 0.4
2014-Jul-27 22:13N 34°30' W 121°27'0 0.3
2014-Jul-27 21:31N 34°30' W 121°27'0 0.4
2014-Jul-27 20:25N 34°30' W 121°27'0 0.3
2014-Jul-27 19:19N 34°30' W 121°26'5 7.2
2014-Jul-27 18:33N 34°26' W 121°23'1110.6
2014-Jul-27 17:33N 34°16' W 121°18'1010.4
2014-Jul-27 16:33N 34°07' W 121°12'1414.5
2014-Jul-27 15:33N 33°54' W 121°05'1010.4
2014-Jul-27 14:33N 33°45' W 120°59'1010.3
2014-Jul-27 13:33N 33°40' W 120°47'1010.3
2014-Jul-27 12:33N 33°36' W 120°36'1010.5
2014-Jul-27 11:33N 33°32' W 120°25'1010.5
2014-Jul-27 10:33N 33°29' W 120°13'1010.3
2014-Jul-27 09:33N 33°28' W 120°00'1110.8
2014-Jul-27 08:33N 33°30' W 119°48'1111.2
2014-Jul-27 07:33N 33°33' W 119°35'1111.1
2014-Jul-27 06:32N 33°37' W 119°22'1111.3
2014-Jul-27 05:33N 33°40' W 119°09'1110.6
2014-Jul-27 04:33N 33°40' W 118°57'1010.3
2014-Jul-27 03:33N 33°40' W 118°44'1010.1
2014-Jul-27 02:33N 33°39' W 118°32'10 9.8
2014-Jul-27 01:33N 33°38' W 118°21'7 6.7
2014-Jul-27 00:33N 33°44' W 118°17'2 1.7
2014-Jul-26 23:31N 33°46' W 118°17'0 0.0
2014-Jul-26 22:34N 33°46' W 118°17'0 0.0
2014-Jul-26 21:34N 33°46' W 118°17'0 0.0
2014-Jul-26 20:34N 33°46' W 118°17'0 0.0
2014-Jul-26 19:31N 33°46' W 118°17'0 0.0
2014-Jul-26 18:31N 33°46' W 118°17'0 0.0
2014-Jul-26 17:31N 33°46' W 118°17'0 0.0
2014-Jul-26 16:31N 33°46' W 118°17'0 0.0
2014-Jul-26 15:34N 33°46' W 118°17'0 0.0
2014-Jul-26 14:34N 33°46' W 118°17'0 0.0
2014-Jul-26 13:31N 33°46' W 118°17'2 1.9
2014-Jul-26 12:33N 33°44' W 118°17'3 3.3
2014-Jul-26 11:32N 33°43' W 118°13'0 0.0
2014-Jul-26 10:32N 33°43' W 118°13'0 0.1
2014-Jul-26 09:32N 33°43' W 118°13'0 0.1
2014-Jul-26 08:29N 33°43' W 118°13'0 0.0
2014-Jul-26 07:32N 33°43' W 118°13'0 0.1
2014-Jul-26 06:32N 33°43' W 118°13'0 0.1
2014-Jul-26 05:32N 33°43' W 118°13'0 0.0
2014-Jul-26 04:32N 33°43' W 118°13'0 0.1
2014-Jul-26 03:32N 33°43' W 118°13'0 0.0
2014-Jul-26 02:32N 33°43' W 118°13'0 0.0
2014-Jul-26 01:32N 33°43' W 118°13'0 0.0
2014-Jul-26 00:32N 33°43' W 118°13'0 0.0
2014-Jul-25 23:32N 33°43' W 118°13'0 0.1
2014-Jul-25 22:32N 33°43' W 118°13'0 0.0
2014-Jul-25 21:32N 33°43' W 118°13'0 0.0
2014-Jul-25 20:32N 33°43' W 118°13'0 0.1
2014-Jul-25 19:32N 33°43' W 118°13'0 0.0
2014-Jul-25 18:29N 33°43' W 118°13'1 0.7
2014-Jul-25 17:33N 33°42' W 118°13'8 8.3
2014-Jul-25 16:33N 33°36' W 118°20'1110.9
2014-Jul-25 15:33N 33°41' W 118°32'1110.6
2014-Jul-25 14:33N 33°46' W 118°43'1010.4
2014-Jul-25 13:33N 33°52' W 118°53'1210.6
2014-Jul-25 12:27N 33°57' W 119°06'1011.0
2014-Jul-25 11:33N 34°03' W 119°15'6 1.3
2014-Jul-25 06:27N 34°09' W 119°12'0 0.0
2014-Jul-25 05:30N 34°09' W 119°12'0 0.0
2014-Jul-25 04:33N 34°09' W 119°12'0 0.0
2014-Jul-25 03:21N 34°09' W 119°12'0 0.0
2014-Jul-25 02:27N 34°09' W 119°12'0 0.0
2014-Jul-25 01:33N 34°09' W 119°12'0 0.0
2014-Jul-25 00:27N 34°09' W 119°12'0 0.0
2014-Jul-24 23:33N 34°09' W 119°12'0 0.0
2014-Jul-24 22:33N 34°09' W 119°12'0 0.0
2014-Jul-24 21:33N 34°09' W 119°12'0 0.0
2014-Jul-24 20:33N 34°09' W 119°12'0 0.0
2014-Jul-24 19:33N 34°09' W 119°12'0 0.0
2014-Jul-24 18:33N 34°09' W 119°12'0 0.0
2014-Jul-24 17:32N 34°09' W 119°12'0 0.0
2014-Jul-24 16:33N 34°09' W 119°12'0 0.0
2014-Jul-24 13:21N 34°09' W 119°12'0 0.0
2014-Jul-24 12:32N 34°09' W 119°12'0 0.0
2014-Jul-24 11:26N 34°09' W 119°12'0 0.0
2014-Jul-24 10:29N 34°09' W 119°12'0 0.0
2014-Jul-24 09:26N 34°09' W 119°12'0 0.0
2014-Jul-24 07:14N 34°09' W 119°12'0 0.0
2014-Jul-24 06:14N 34°09' W 119°12'0 0.0
2014-Jul-24 05:32N 34°09' W 119°12'0 0.0
2014-Jul-24 03:23N 34°09' W 119°12'0 0.0
2014-Jul-24 02:29N 34°09' W 119°12'0 0.0
2014-Jul-24 01:08N 34°09' W 119°12'0 0.0
2014-Jul-24 00:32N 34°09' W 119°12'0 0.0
2014-Jul-23 23:29N 34°09' W 119°12'0 0.0
2014-Jul-23 22:26N 34°09' W 119°12'0 0.0
2014-Jul-23 21:32N 34°09' W 119°12'0 0.0
2014-Jul-23 20:32N 34°09' W 119°12'0 0.0
2014-Jul-23 19:26N 34°09' W 119°12'0 0.0
2014-Jul-23 18:29N 34°09' W 119°12'0 0.0
2014-Jul-23 17:26N 34°09' W 119°12'0 0.0
2014-Jul-23 15:32N 34°09' W 119°12'0 0.0
2014-Jul-23 14:32N 34°09' W 119°12'0 0.0
2014-Jul-23 13:33N 34°09' W 119°12'5 4.8
2014-Jul-23 12:33N 34°04' W 119°14'1110.7
2014-Jul-23 11:33N 33°59' W 119°03'1110.7
2014-Jul-23 10:33N 33°53' W 118°52'1110.5
2014-Jul-23 09:33N 33°48' W 118°41'1111.1
2014-Jul-23 08:33N 33°43' W 118°29'1110.5
2014-Jul-23 07:32N 33°38' W 118°18'10 9.8
2014-Jul-23 06:33N 33°33' W 118°08'1110.8
2014-Jul-23 05:33N 33°22' W 118°04'1110.9
2014-Jul-23 04:33N 33°12' W 117°59'1111.1
2014-Jul-23 03:33N 33°02' W 117°55'1211.5
2014-Jul-23 02:33N 32°51' W 117°50'1111.4
2014-Jul-23 01:33N 32°40' W 117°46'1110.8
2014-Jul-23 00:33N 32°30' W 117°40'1211.8
2014-Jul-22 23:33N 32°19' W 117°37'1313.1
2014-Jul-22 22:33N 32°07' W 117°31'1515.1
2014-Jul-22 21:33N 31°52' W 117°25'1615.1
2014-Jul-22 20:31N 31°38' W 117°19'1515.3
2014-Jul-22 19:33N 31°24' W 117°14'1715.7
2014-Jul-22 18:29N 31°08' W 117°07'10716.6
2014-Jul-22 12:04N 29°27' W 116°26'30416.8
2014-Jul-21 18:00N 25°06' W 113°30'   330 / 151016.010.8 2.022.020.6

Dump ship's entire track history